createdAt,value
2022-12-26T00:01:07.627Z,1.20
2022-12-26T00:04:50.679Z,1.02
2022-12-26T00:07:30.739Z,1.02
2022-12-26T00:10:32.203Z,1.00
2022-12-26T00:13:39.789Z,1.00
2022-12-26T00:16:44.618Z,1.10
2022-12-26T00:19:46.279Z,1.20
2022-12-26T00:22:47.786Z,1.10
2022-12-26T00:25:49.318Z,0.93
2022-12-26T00:28:53.999Z,1.00
2022-12-26T00:31:55.574Z,1.02
2022-12-26T00:34:57.087Z,1.00
2022-12-26T00:37:58.539Z,0.95
2022-12-26T00:41:00.129Z,1.00
2022-12-26T00:44:01.716Z,1.10
2022-12-26T00:47:03.258Z,1.00
2022-12-26T00:50:14.211Z,1.00
2022-12-26T00:53:16.741Z,0.90
2022-12-26T00:56:18.391Z,1.00
2022-12-26T00:59:19.902Z,1.00
2022-12-26T01:02:39.644Z,0.80
2022-12-26T01:05:49.116Z,0.85
2022-12-26T01:08:50.672Z,0.98
2022-12-26T01:11:52.181Z,0.90
2022-12-26T01:14:57.183Z,0.98
2022-12-26T01:18:00.088Z,0.90
2022-12-26T01:21:05.036Z,1.00
2022-12-26T01:24:06.719Z,0.98
2022-12-26T01:27:09.506Z,1.17
2022-12-26T01:30:12.542Z,1.00
2022-12-26T01:33:14.087Z,1.05
2022-12-26T01:36:16.877Z,1.00
2022-12-26T01:39:18.389Z,0.90
2022-12-26T01:42:23.433Z,0.95
2022-12-26T01:45:24.870Z,0.80
2022-12-26T01:48:34.344Z,0.90
2022-12-26T01:51:40.210Z,0.93
2022-12-26T01:54:46.309Z,0.90
2022-12-26T01:57:55.503Z,0.90
2022-12-26T02:00:57.264Z,0.90
2022-12-26T02:04:20.780Z,1.00
2022-12-26T02:07:23.410Z,0.90
2022-12-26T02:10:28.233Z,0.90
2022-12-26T02:13:30.711Z,0.80
2022-12-26T02:16:35.257Z,0.85
2022-12-26T02:20:01.928Z,1.02
2022-12-26T02:23:37.347Z,0.90
2022-12-26T02:27:03.856Z,1.10
2022-12-26T02:30:24.166Z,1.00
2022-12-26T02:33:37.523Z,0.80
2022-12-26T02:36:50.927Z,0.90
2022-12-26T02:39:52.393Z,0.90
2022-12-26T02:43:06.534Z,0.98
2022-12-26T02:46:44.968Z,0.90
2022-12-26T02:50:10.924Z,0.90
2022-12-26T02:53:33.661Z,0.98
2022-12-26T02:57:00.685Z,0.90
2022-12-26T03:00:22.865Z,0.82
2022-12-26T03:03:48.675Z,0.98
2022-12-26T03:07:14.962Z,0.80
2022-12-26T03:10:41.801Z,0.90
2022-12-26T03:13:45.696Z,0.90
2022-12-26T03:17:11.472Z,0.90
2022-12-26T03:20:25.853Z,1.00
2022-12-26T03:23:28.629Z,0.80
2022-12-26T03:26:40.633Z,0.75
2022-12-26T03:30:14.363Z,0.80
2022-12-26T03:33:36.788Z,1.02
2022-12-26T03:36:59.775Z,0.90
2022-12-26T03:40:38.814Z,0.95
2022-12-26T03:44:05.972Z,0.90
2022-12-26T03:48:04.588Z,0.90
2022-12-26T03:51:41.952Z,0.90
2022-12-26T03:55:15.185Z,0.80
2022-12-26T03:58:40.517Z,0.90
2022-12-26T04:02:04.000Z,0.90
2022-12-26T04:05:27.460Z,1.00
2022-12-26T04:08:56.676Z,0.95
2022-12-26T04:12:19.800Z,0.90
2022-12-26T04:16:04.249Z,0.90
2022-12-26T04:19:36.296Z,0.90
2022-12-26T04:23:09.670Z,0.82
2022-12-26T04:26:38.646Z,0.93
2022-12-26T04:29:59.014Z,0.80
2022-12-26T04:33:32.591Z,0.80
2022-12-26T04:37:00.986Z,0.90
2022-12-26T04:40:23.855Z,0.65
2022-12-26T04:43:51.308Z,0.80
2022-12-26T04:46:55.821Z,0.75
2022-12-26T04:50:12.582Z,0.90
2022-12-26T04:53:14.943Z,0.88
2022-12-26T04:56:17.152Z,0.80
2022-12-26T04:59:19.389Z,0.80
2022-12-26T05:02:39.452Z,0.80
2022-12-26T05:06:03.039Z,0.90
2022-12-26T05:09:22.910Z,0.73
2022-12-26T05:12:24.385Z,0.80
2022-12-26T05:15:25.911Z,0.80
2022-12-26T05:18:45.950Z,1.17
2022-12-26T05:22:06.190Z,0.70
2022-12-26T05:25:38.991Z,0.80
2022-12-26T05:28:43.578Z,0.80
2022-12-26T05:31:45.145Z,0.80
2022-12-26T05:34:47.678Z,0.70
2022-12-26T05:37:49.187Z,0.90
2022-12-26T05:40:50.654Z,0.90
2022-12-26T05:43:52.143Z,0.70
2022-12-26T05:46:53.688Z,0.70
2022-12-26T05:49:55.151Z,0.80
2022-12-26T05:52:58.186Z,0.88
2022-12-26T05:56:21.879Z,0.70
2022-12-26T05:59:23.361Z,0.77
2022-12-26T06:02:24.888Z,0.70
2022-12-26T06:05:26.658Z,0.70
2022-12-26T06:08:28.431Z,0.90
2022-12-26T06:11:29.988Z,0.73
2022-12-26T06:14:31.471Z,0.80
2022-12-26T06:17:33.013Z,0.82
2022-12-26T06:20:34.536Z,0.77
2022-12-26T06:23:36.741Z,0.75
2022-12-26T06:26:38.194Z,0.80
2022-12-26T06:29:39.711Z,0.73
2022-12-26T06:32:41.170Z,0.70
2022-12-26T06:35:42.768Z,0.70
2022-12-26T06:38:44.543Z,0.70
2022-12-26T06:41:46.065Z,0.70
2022-12-26T06:44:47.523Z,0.90
2022-12-26T06:47:49.042Z,0.70
2022-12-26T06:50:56.570Z,0.80
2022-12-26T06:54:00.522Z,0.70
2022-12-26T06:57:01.998Z,0.70
2022-12-26T07:00:04.036Z,0.80
2022-12-26T07:03:05.584Z,0.60
2022-12-26T07:06:20.471Z,0.77
2022-12-26T07:09:21.959Z,0.70
2022-12-26T07:12:23.514Z,0.80
2022-12-26T07:15:25.118Z,0.82
2022-12-26T07:18:26.674Z,0.90
2022-12-26T07:21:36.349Z,0.70
2022-12-26T07:24:41.431Z,0.70
2022-12-26T07:27:42.886Z,0.70
2022-12-26T07:30:50.761Z,0.77
2022-12-26T07:33:54.328Z,0.85
2022-12-26T07:36:55.943Z,0.80
2022-12-26T07:39:59.360Z,0.65
2022-12-26T07:43:01.110Z,0.80
2022-12-26T07:46:02.689Z,0.80
2022-12-26T07:49:04.288Z,0.80
2022-12-26T07:52:05.879Z,0.90
2022-12-26T07:55:08.968Z,0.80
2022-12-26T07:58:10.497Z,0.70
2022-12-26T08:01:12.088Z,0.70
2022-12-26T08:04:14.795Z,0.60
2022-12-26T08:07:16.295Z,1.25
2022-12-26T08:10:17.924Z,0.70
2022-12-26T08:13:19.470Z,0.85
2022-12-26T08:16:21.643Z,0.80
2022-12-26T08:19:23.146Z,0.70
2022-12-26T08:22:24.668Z,0.70
2022-12-26T08:25:26.170Z,0.70
2022-12-26T08:28:27.650Z,0.80
2022-12-26T08:31:29.251Z,0.77
2022-12-26T08:34:35.165Z,0.70
2022-12-26T08:37:36.684Z,0.82
2022-12-26T08:40:45.260Z,0.75
2022-12-26T08:47:16.660Z,0.80
2022-12-26T08:50:18.191Z,0.90
2022-12-26T08:53:19.705Z,0.73
2022-12-26T08:56:24.672Z,0.70
2022-12-26T08:59:26.147Z,0.80
2022-12-26T09:02:27.743Z,0.80
2022-12-26T09:05:31.243Z,0.70
2022-12-26T09:08:36.681Z,0.70
2022-12-26T09:11:42.332Z,0.80
2022-12-26T09:14:43.835Z,0.73
2022-12-26T09:17:45.435Z,0.80
2022-12-26T09:20:46.985Z,0.85
2022-12-26T09:23:48.530Z,0.70
2022-12-26T09:26:50.032Z,0.70
2022-12-26T09:29:51.542Z,0.68
2022-12-26T09:32:53.928Z,0.70
2022-12-26T09:36:03.078Z,0.90
2022-12-26T09:39:06.606Z,0.80
2022-12-26T09:42:34.138Z,0.80
2022-12-26T09:45:52.475Z,0.70
2022-12-26T09:48:58.944Z,0.80
2022-12-26T09:52:05.216Z,0.70
2022-12-26T09:55:29.501Z,0.80
2022-12-26T09:58:32.476Z,0.75
2022-12-26T10:01:36.623Z,0.80
2022-12-26T10:04:38.282Z,0.90
2022-12-26T10:07:39.739Z,0.90
2022-12-26T10:10:56.288Z,1.25
2022-12-26T10:14:39.810Z,2.17
2022-12-26T10:18:26.189Z,1.70
2022-12-26T10:21:46.369Z,1.70
2022-12-26T10:24:49.919Z,1.85
2022-12-26T10:27:51.744Z,1.83
2022-12-26T10:30:56.908Z,1.40
2022-12-26T10:34:23.186Z,1.60
2022-12-26T10:37:32.979Z,1.55
2022-12-26T10:40:39.217Z,1.38
2022-12-26T10:43:45.526Z,1.60
2022-12-26T10:47:11.541Z,1.80
2022-12-26T10:50:31.331Z,1.73
2022-12-26T10:53:35.769Z,1.35
2022-12-26T10:56:37.588Z,1.40
2022-12-26T10:59:44.236Z,1.33
2022-12-26T11:02:46.114Z,1.52
2022-12-26T11:06:09.511Z,1.33
2022-12-26T11:09:39.364Z,1.40
2022-12-26T11:12:50.063Z,1.40
2022-12-26T11:15:53.267Z,1.30
2022-12-26T11:18:56.062Z,1.30
2022-12-26T11:22:18.800Z,1.40
2022-12-26T11:25:34.980Z,1.40
2022-12-26T11:28:37.758Z,1.40
2022-12-26T11:31:42.614Z,1.25
2022-12-26T11:34:47.845Z,1.40
2022-12-26T11:37:57.851Z,1.38
2022-12-26T11:41:18.021Z,1.40
2022-12-26T11:44:45.352Z,1.30
2022-12-26T11:50:48.695Z,1.20
2022-12-26T11:53:50.130Z,1.30
2022-12-26T11:57:02.247Z,1.17
2022-12-26T12:00:20.126Z,1.20
2022-12-26T12:03:42.400Z,1.40
2022-12-26T12:07:09.335Z,1.38
2022-12-26T12:10:38.450Z,1.40
2022-12-26T12:13:51.997Z,1.30
2022-12-26T12:17:26.416Z,1.27
2022-12-26T12:20:32.294Z,1.65
2022-12-26T12:24:01.545Z,1.38
2022-12-26T12:27:24.737Z,1.20
2022-12-26T12:30:40.710Z,1.27
2022-12-26T12:37:23.582Z,1.40
2022-12-26T12:40:56.670Z,1.60
2022-12-26T12:44:06.133Z,1.40
2022-12-26T12:47:23.073Z,1.10
2022-12-26T12:54:16.204Z,1.27
2022-12-26T12:57:27.293Z,1.20
2022-12-26T13:00:39.347Z,1.40
2022-12-26T13:03:57.870Z,1.27
2022-12-26T13:07:07.535Z,1.25
2022-12-26T13:10:19.657Z,1.33
2022-12-26T13:13:30.063Z,1.20
2022-12-26T13:16:43.284Z,1.40
2022-12-26T13:19:52.635Z,1.33
2022-12-26T13:23:25.067Z,1.10
2022-12-26T13:26:34.383Z,1.20
2022-12-26T13:29:39.389Z,1.33
2022-12-26T13:32:44.888Z,1.20
2022-12-26T13:36:03.732Z,1.33
2022-12-26T13:39:08.075Z,1.30
2022-12-26T13:42:28.254Z,1.10
2022-12-26T13:45:35.705Z,1.10
2022-12-26T13:48:37.215Z,1.10
2022-12-26T13:51:50.525Z,1.17
2022-12-26T13:54:51.958Z,1.25
2022-12-26T13:58:19.744Z,1.20
2022-12-26T14:01:21.264Z,1.50
2022-12-26T14:05:06.232Z,1.33
2022-12-26T14:08:14.706Z,1.17
2022-12-26T14:11:42.616Z,1.30
2022-12-26T14:14:59.285Z,1.23
2022-12-26T14:18:03.638Z,1.13
2022-12-26T14:21:42.809Z,1.00
2022-12-26T14:25:04.705Z,1.20
2022-12-26T14:28:21.572Z,1.20
2022-12-26T14:34:46.064Z,1.10
2022-12-26T14:41:33.258Z,1.17
2022-12-26T14:44:34.658Z,1.05
2022-12-26T14:47:49.444Z,1.10
2022-12-26T14:51:04.463Z,1.10
2022-12-26T14:54:16.777Z,1.10
2022-12-26T14:57:43.166Z,1.20
2022-12-26T15:00:45.079Z,0.87
2022-12-26T15:03:52.800Z,1.20
2022-12-26T15:07:20.386Z,1.00
2022-12-26T15:10:34.836Z,1.10
2022-12-26T15:13:51.259Z,1.00
2022-12-26T15:17:07.028Z,1.05
2022-12-26T15:20:20.604Z,1.10
2022-12-26T15:23:24.960Z,1.08
2022-12-26T15:26:43.969Z,1.02
2022-12-26T15:30:00.682Z,1.00
2022-12-26T15:33:28.659Z,1.20
2022-12-26T15:36:48.450Z,1.08
2022-12-26T15:40:14.974Z,0.90
2022-12-26T15:43:25.663Z,1.17
2022-12-26T15:46:32.212Z,0.98
2022-12-26T15:49:39.632Z,1.00
2022-12-26T15:53:09.863Z,1.10
2022-12-26T15:56:40.695Z,0.98
2022-12-26T16:00:12.701Z,0.90
2022-12-26T16:03:20.630Z,0.80
2022-12-26T16:06:44.246Z,0.93
2022-12-26T16:09:52.782Z,1.00
2022-12-26T16:13:03.202Z,0.80
2022-12-26T16:16:04.987Z,0.88
2022-12-26T16:19:22.905Z,0.90
2022-12-26T16:22:43.586Z,1.10
2022-12-26T16:25:49.832Z,0.80
2022-12-26T16:28:52.304Z,0.90
2022-12-26T16:32:02.528Z,0.88
2022-12-26T16:35:06.746Z,0.88
2022-12-26T16:38:16.807Z,0.90
2022-12-26T16:41:25.473Z,0.80
2022-12-26T16:44:31.111Z,0.77
2022-12-26T16:47:33.170Z,0.95
2022-12-26T16:50:44.041Z,0.90
2022-12-26T16:53:45.641Z,0.75
2022-12-26T16:56:52.312Z,0.70
2022-12-26T16:59:59.267Z,1.10
2022-12-26T17:03:03.045Z,0.88
2022-12-26T17:06:07.570Z,1.20
2022-12-26T17:09:12.184Z,1.02
2022-12-26T17:12:27.776Z,0.90
2022-12-26T17:15:36.174Z,0.90
2022-12-26T17:18:52.615Z,1.10
2022-12-26T17:22:17.762Z,0.90
2022-12-26T17:25:26.414Z,0.90
2022-12-26T17:28:28.763Z,0.73
2022-12-26T17:31:44.540Z,0.80
2022-12-26T17:34:46.259Z,0.80
2022-12-26T17:37:51.241Z,0.80
2022-12-26T17:40:55.653Z,0.77
2022-12-26T17:43:57.769Z,0.80
2022-12-26T17:47:02.821Z,1.02
2022-12-26T17:50:04.602Z,0.82
2022-12-26T17:53:22.756Z,0.98
2022-12-26T17:56:27.084Z,0.80
2022-12-26T17:59:28.652Z,0.80
2022-12-26T18:02:30.206Z,0.82
2022-12-26T18:05:32.597Z,0.80
2022-12-26T18:08:37.217Z,0.80
2022-12-26T18:11:38.727Z,0.80
2022-12-26T18:14:41.338Z,1.10
2022-12-26T18:17:43.359Z,1.10
2022-12-26T18:20:44.847Z,1.30
2022-12-26T18:23:46.365Z,1.35
2022-12-26T18:26:49.668Z,1.48
2022-12-26T18:29:51.400Z,1.30
2022-12-26T18:32:54.017Z,1.60
2022-12-26T18:35:55.769Z,1.65
2022-12-26T18:38:57.318Z,1.98
2022-12-26T18:41:58.824Z,1.25
2022-12-26T18:45:00.402Z,1.67
2022-12-26T18:48:02.067Z,1.63
2022-12-26T18:51:06.121Z,1.38
2022-12-26T18:54:07.703Z,1.58
2022-12-26T18:57:20.093Z,1.65
2022-12-26T19:00:22.032Z,1.60
2022-12-26T19:03:23.500Z,1.50
2022-12-26T19:06:28.923Z,1.60
2022-12-26T19:09:30.447Z,1.75
2022-12-26T19:12:31.926Z,1.60
2022-12-26T19:15:35.940Z,1.70
2022-12-26T19:18:37.529Z,1.50
2022-12-26T19:21:41.774Z,1.70
2022-12-26T19:24:44.435Z,1.83
2022-12-26T19:27:47.639Z,1.48
2022-12-26T19:30:49.148Z,1.70
2022-12-26T19:33:50.621Z,1.73
2022-12-26T19:36:52.135Z,1.52
2022-12-26T19:39:53.620Z,1.60
2022-12-26T19:42:55.092Z,1.52
2022-12-26T19:46:05.059Z,1.50
2022-12-26T19:49:06.582Z,1.42
2022-12-26T19:52:09.979Z,1.30
2022-12-26T19:55:12.317Z,1.98
2022-12-26T19:58:13.821Z,1.38
2022-12-26T20:01:18.759Z,1.65
2022-12-26T20:04:20.610Z,1.52
2022-12-26T20:07:22.124Z,1.52
2022-12-26T20:10:23.614Z,1.70
2022-12-26T20:13:25.139Z,1.38
2022-12-26T20:17:03.781Z,1.30
2022-12-26T20:19:50.163Z,1.25
2022-12-26T20:22:53.404Z,1.40
2022-12-26T20:25:57.702Z,1.50
2022-12-26T20:29:03.594Z,1.40
2022-12-26T20:32:05.150Z,1.25
2022-12-26T20:35:06.959Z,1.67
2022-12-26T20:38:08.434Z,1.25
2022-12-26T20:41:11.279Z,1.40
2022-12-26T20:44:14.519Z,1.30
2022-12-26T20:47:17.342Z,1.30
2022-12-26T20:50:19.251Z,1.17
2022-12-26T20:53:20.771Z,1.25
2022-12-26T20:56:22.276Z,1.27
2022-12-26T20:59:23.880Z,1.30
2022-12-26T21:02:25.543Z,1.20
2022-12-26T21:05:27.226Z,1.27
2022-12-26T21:08:28.709Z,1.13
2022-12-26T21:11:33.231Z,1.20
2022-12-26T21:14:34.781Z,1.20
2022-12-26T21:17:36.846Z,1.10
2022-12-26T21:20:38.320Z,1.13
2022-12-26T21:23:40.154Z,1.00
2022-12-26T21:26:42.697Z,1.30
2022-12-26T21:29:44.324Z,1.25
2022-12-26T21:32:46.226Z,1.27
2022-12-26T21:35:50.828Z,1.10
2022-12-26T21:38:53.396Z,1.20
2022-12-26T21:41:54.942Z,0.90
2022-12-26T21:44:56.448Z,1.10
2022-12-26T21:47:57.952Z,1.27
2022-12-26T21:50:59.419Z,1.20
2022-12-26T21:54:19.503Z,1.10
2022-12-26T21:57:22.257Z,1.00
2022-12-26T22:00:24.115Z,0.85
2022-12-26T22:03:44.355Z,0.90
2022-12-26T22:06:45.964Z,1.17
2022-12-26T22:09:47.444Z,1.05
2022-12-26T22:12:57.967Z,0.90
2022-12-26T22:16:06.880Z,0.85
2022-12-26T22:19:09.075Z,0.90
2022-12-26T22:22:10.630Z,1.17
2022-12-26T22:25:12.605Z,1.00
2022-12-26T22:28:16.569Z,1.00
2022-12-26T22:31:31.613Z,1.10
2022-12-26T22:34:33.241Z,1.00
2022-12-26T22:37:34.737Z,0.90
2022-12-26T22:40:36.475Z,0.90
2022-12-26T22:43:37.913Z,0.90
2022-12-26T22:46:39.456Z,0.90
2022-12-26T22:49:40.972Z,1.10
2022-12-26T22:52:42.844Z,0.80
2022-12-26T22:55:50.596Z,0.90
2022-12-26T22:58:53.894Z,0.98
2022-12-26T23:01:55.547Z,0.80
2022-12-26T23:04:57.464Z,0.80
2022-12-26T23:07:59.119Z,1.08
2022-12-26T23:11:00.884Z,0.85
2022-12-26T23:14:05.398Z,1.00
2022-12-26T23:17:10.549Z,0.93
2022-12-26T23:20:33.311Z,0.98
2022-12-26T23:23:35.053Z,1.05
2022-12-26T23:26:36.530Z,0.90
2022-12-26T23:29:56.699Z,0.95
2022-12-26T23:32:58.417Z,0.90
2022-12-26T23:36:00.015Z,0.90
2022-12-26T23:39:01.648Z,0.85
2022-12-26T23:42:03.139Z,1.10
2022-12-26T23:45:05.468Z,0.80
2022-12-26T23:48:06.915Z,0.90
2022-12-26T23:51:08.666Z,0.70
2022-12-26T23:54:10.287Z,0.70
2022-12-26T23:57:11.823Z,0.75
